createdAt,value
2022-09-04T00:00:12.192Z,7.00
2022-09-04T00:02:51.124Z,6.97
2022-09-04T00:05:26.022Z,7.17
2022-09-04T00:08:01.329Z,6.63
2022-09-04T00:10:31.107Z,6.90
2022-09-04T00:13:03.074Z,7.40
2022-09-04T00:15:34.931Z,6.60
2022-09-04T00:18:06.886Z,6.37
2022-09-04T00:20:37.445Z,6.37
2022-09-04T00:23:11.444Z,6.53
2022-09-04T00:25:42.729Z,6.80
2022-09-04T00:28:12.055Z,7.03
2022-09-04T00:30:43.216Z,7.23
2022-09-04T00:33:14.619Z,6.57
2022-09-04T00:35:47.501Z,7.63
2022-09-04T00:38:18.889Z,6.73
2022-09-04T00:40:51.666Z,6.30
2022-09-04T00:43:32.464Z,7.03
2022-09-04T00:46:13.827Z,6.87
2022-09-04T00:49:02.121Z,6.13
2022-09-04T00:51:33.355Z,7.07
2022-09-04T00:54:16.236Z,6.27
2022-09-04T00:56:55.381Z,5.90
2022-09-04T00:59:32.911Z,6.47
2022-09-04T01:02:06.986Z,6.23
2022-09-04T01:04:39.250Z,7.00
2022-09-04T01:07:24.059Z,6.83
2022-09-04T01:10:06.433Z,6.70
2022-09-04T01:12:38.755Z,5.90
2022-09-04T01:15:14.419Z,5.93
2022-09-04T01:17:45.811Z,6.43
2022-09-04T01:20:20.076Z,5.60
2022-09-04T01:23:03.464Z,5.33
2022-09-04T01:25:42.475Z,5.20
2022-09-04T01:28:12.690Z,5.40
2022-09-04T01:30:44.252Z,5.40
2022-09-04T01:33:15.357Z,5.10
2022-09-04T01:35:46.139Z,6.13
2022-09-04T01:38:29.082Z,4.90
2022-09-04T01:41:01.743Z,5.73
2022-09-04T01:43:30.103Z,4.63
2022-09-04T01:46:14.309Z,5.90
2022-09-04T01:48:45.091Z,4.60
2022-09-04T01:51:16.960Z,4.67
2022-09-04T01:53:47.293Z,5.57
2022-09-04T01:56:20.370Z,5.63
2022-09-04T01:58:48.999Z,5.53
2022-09-04T02:01:21.298Z,5.43
2022-09-04T02:03:52.152Z,6.43
2022-09-04T02:06:24.519Z,5.90
2022-09-04T02:09:01.783Z,5.20
2022-09-04T02:11:31.764Z,4.37
2022-09-04T02:14:06.621Z,5.00
2022-09-04T02:16:37.236Z,4.93
2022-09-04T02:19:07.235Z,4.60
2022-09-04T02:21:37.188Z,4.73
2022-09-04T02:24:14.088Z,5.63
2022-09-04T02:26:48.046Z,4.97
2022-09-04T02:29:18.571Z,5.13
2022-09-04T02:31:50.220Z,4.93
2022-09-04T02:34:25.172Z,4.43
2022-09-04T02:36:55.424Z,4.70
2022-09-04T02:39:30.135Z,4.20
2022-09-04T02:42:03.864Z,4.40
2022-09-04T02:44:39.353Z,4.67
2022-09-04T02:47:12.733Z,5.23
2022-09-04T02:49:48.444Z,5.00
2022-09-04T02:52:26.776Z,4.87
2022-09-04T02:55:01.960Z,4.80
2022-09-04T02:57:37.111Z,5.43
2022-09-04T03:00:08.124Z,5.37
2022-09-04T03:02:38.439Z,4.83
2022-09-04T03:05:09.074Z,5.13
2022-09-04T03:07:38.089Z,4.73
2022-09-04T03:10:10.124Z,4.53
2022-09-04T03:12:41.200Z,5.00
2022-09-04T03:15:13.441Z,5.27
2022-09-04T03:17:45.851Z,4.80
2022-09-04T03:20:15.630Z,4.70
2022-09-04T03:22:48.513Z,5.03
2022-09-04T03:25:32.803Z,5.23
2022-09-04T03:28:01.770Z,4.93
2022-09-04T03:30:30.864Z,4.77
2022-09-04T03:33:02.836Z,5.27
2022-09-04T03:35:34.288Z,4.80
2022-09-04T03:38:20.395Z,4.70
2022-09-04T03:40:54.079Z,5.17
2022-09-04T03:43:31.703Z,5.10
2022-09-04T03:46:02.443Z,5.10
2022-09-04T03:48:35.687Z,4.80
2022-09-04T03:51:07.835Z,3.77
2022-09-04T03:53:38.386Z,4.30
2022-09-04T03:56:26.840Z,4.10
2022-09-04T03:59:01.848Z,3.77
2022-09-04T04:01:34.557Z,4.20
2022-09-04T04:04:15.546Z,3.80
2022-09-04T04:06:48.290Z,3.67
2022-09-04T04:09:27.233Z,3.77
2022-09-04T04:12:13.422Z,3.60
2022-09-04T04:14:52.790Z,3.20
2022-09-04T04:17:30.874Z,3.33
2022-09-04T04:20:05.749Z,3.37
2022-09-04T04:22:40.428Z,3.23
2022-09-04T04:25:16.453Z,4.03
2022-09-04T04:27:54.340Z,3.80
2022-09-04T04:30:23.183Z,3.00
2022-09-04T04:33:05.299Z,3.73
2022-09-04T04:35:36.755Z,3.60
2022-09-04T04:38:08.795Z,3.33
2022-09-04T04:40:45.524Z,3.23
2022-09-04T04:43:16.739Z,3.37
2022-09-04T04:45:52.555Z,3.30
2022-09-04T04:48:29.864Z,3.70
2022-09-04T04:51:05.290Z,3.83
2022-09-04T04:53:37.219Z,3.30
2022-09-04T04:56:07.749Z,3.40
2022-09-04T04:58:44.369Z,3.60
2022-09-04T05:01:18.826Z,2.87
2022-09-04T05:03:55.882Z,2.87
2022-09-04T05:06:33.330Z,3.10
2022-09-04T05:09:06.473Z,2.93
2022-09-04T05:11:38.428Z,3.30
2022-09-04T05:14:15.528Z,3.40
2022-09-04T05:16:53.504Z,3.57
2022-09-04T05:19:25.932Z,3.33
2022-09-04T05:21:57.136Z,3.40
2022-09-04T05:24:29.966Z,3.30
2022-09-04T05:27:01.790Z,3.30
2022-09-04T05:29:33.474Z,3.40
2022-09-04T05:32:09.062Z,3.17
2022-09-04T05:34:54.341Z,3.67
2022-09-04T05:37:24.290Z,4.13
2022-09-04T05:40:02.057Z,3.83
2022-09-04T05:42:50.524Z,3.60
2022-09-04T05:45:23.022Z,3.57
2022-09-04T05:47:57.322Z,3.50
2022-09-04T05:50:30.609Z,3.27
2022-09-04T05:53:04.437Z,3.70
2022-09-04T05:55:51.125Z,3.90
2022-09-04T05:58:35.824Z,4.07
2022-09-04T06:01:08.979Z,4.00
2022-09-04T06:03:49.479Z,3.77
2022-09-04T06:06:22.138Z,3.87
2022-09-04T06:09:06.984Z,3.43
2022-09-04T06:11:57.073Z,4.03
2022-09-04T06:14:39.384Z,3.47
2022-09-04T06:17:22.706Z,3.73
2022-09-04T06:19:58.444Z,3.70
2022-09-04T06:22:31.249Z,3.80
2022-09-04T06:25:05.867Z,4.10
2022-09-04T06:27:49.575Z,4.23
2022-09-04T06:30:17.748Z,3.97
2022-09-04T06:32:54.915Z,3.97
2022-09-04T06:35:42.978Z,3.93
2022-09-04T06:38:20.226Z,3.17
2022-09-04T06:40:53.283Z,2.45
2022-09-04T06:43:29.558Z,2.47
2022-09-04T06:46:02.491Z,2.30
2022-09-04T06:48:36.759Z,2.50
2022-09-04T06:51:10.772Z,2.60
2022-09-04T06:53:43.826Z,2.05
2022-09-04T06:56:17.213Z,3.05
2022-09-04T06:59:01.054Z,3.38
2022-09-04T07:01:34.090Z,2.78
2022-09-04T07:04:07.927Z,2.97
2022-09-04T07:06:44.874Z,2.38
2022-09-04T07:09:17.346Z,4.40
2022-09-04T07:11:56.703Z,4.28
2022-09-04T07:14:33.925Z,3.42
2022-09-04T07:17:07.692Z,2.63
2022-09-04T07:19:54.115Z,2.63
2022-09-04T07:22:40.372Z,2.47
2022-09-04T07:25:14.803Z,2.70
2022-09-04T07:27:49.186Z,3.38
2022-09-04T07:30:17.229Z,2.97
2022-09-04T07:32:46.901Z,2.88
2022-09-04T07:35:18.828Z,2.63
2022-09-04T07:37:50.046Z,2.45
2022-09-04T07:40:21.127Z,3.08
2022-09-04T07:42:51.139Z,2.95
2022-09-04T07:45:30.076Z,3.55
2022-09-04T07:48:04.038Z,6.93
2022-09-04T07:50:35.228Z,4.30
2022-09-04T07:53:11.301Z,2.65
2022-09-04T07:55:41.704Z,2.63
2022-09-04T07:58:20.339Z,2.33
2022-09-04T08:00:52.900Z,2.97
2022-09-04T08:03:24.819Z,2.72
2022-09-04T08:05:55.607Z,2.80
2022-09-04T08:08:39.729Z,3.33
2022-09-04T08:11:25.401Z,2.90
2022-09-04T08:14:06.363Z,2.35
2022-09-04T08:16:38.272Z,2.47
2022-09-04T08:19:12.341Z,3.25
2022-09-04T08:21:44.654Z,3.20
2022-09-04T08:24:23.743Z,2.83
2022-09-04T08:27:00.723Z,3.10
2022-09-04T08:29:39.807Z,2.55
2022-09-04T08:32:13.756Z,3.42
2022-09-04T08:34:52.861Z,3.63
2022-09-04T08:37:24.219Z,2.80
2022-09-04T08:39:56.683Z,2.38
2022-09-04T08:42:38.765Z,3.10
2022-09-04T08:45:22.162Z,3.60
2022-09-04T08:48:04.804Z,3.28
2022-09-04T08:50:47.289Z,3.17
2022-09-04T08:53:29.435Z,2.70
2022-09-04T08:56:08.089Z,2.08
2022-09-04T08:58:54.234Z,2.63
2022-09-04T09:01:34.455Z,2.03
2022-09-04T09:04:23.071Z,1.30
2022-09-04T09:07:03.367Z,1.40
2022-09-04T09:09:56.297Z,1.42
2022-09-04T09:12:52.047Z,1.20
2022-09-04T09:15:40.326Z,1.42
2022-09-04T09:18:18.080Z,1.50
2022-09-04T09:20:48.117Z,3.08
2022-09-04T09:23:26.255Z,1.60
2022-09-04T09:25:57.177Z,1.50
2022-09-04T09:28:51.816Z,1.70
2022-09-04T09:31:38.229Z,1.38
2022-09-04T09:34:27.143Z,1.10
2022-09-04T09:37:03.415Z,0.90
2022-09-04T09:39:39.786Z,1.15
2022-09-04T09:42:38.447Z,1.30
2022-09-04T09:45:26.574Z,1.30
2022-09-04T09:48:12.050Z,1.20
2022-09-04T09:50:49.958Z,1.38
2022-09-04T09:53:47.240Z,1.00
2022-09-04T09:56:41.771Z,1.00
2022-09-04T09:59:35.266Z,1.08
2022-09-04T10:02:14.124Z,1.05
2022-09-04T10:04:59.584Z,1.20
2022-09-04T10:07:40.208Z,1.10
2022-09-04T10:10:24.802Z,1.25
2022-09-04T10:13:02.302Z,1.17
2022-09-04T10:15:50.735Z,1.02
2022-09-04T10:18:44.713Z,1.80
2022-09-04T10:21:28.579Z,1.30
2022-09-04T10:24:16.833Z,1.10
2022-09-04T10:26:59.242Z,1.00
2022-09-04T10:29:37.879Z,1.10
2022-09-04T10:32:16.156Z,1.10
2022-09-04T10:34:54.430Z,0.95
2022-09-04T10:37:31.233Z,1.00
2022-09-04T10:40:22.761Z,1.27
2022-09-04T10:42:54.476Z,1.10
2022-09-04T10:45:27.878Z,1.10
2022-09-04T10:48:10.294Z,1.10
2022-09-04T10:50:57.437Z,0.80
2022-09-04T10:53:36.993Z,1.00
2022-09-04T10:56:09.710Z,0.93
2022-09-04T10:58:53.059Z,0.65
2022-09-04T11:01:32.272Z,0.60
2022-09-04T11:04:11.590Z,0.90
2022-09-04T11:06:49.339Z,0.70
2022-09-04T11:09:28.471Z,0.70
2022-09-04T11:12:13.978Z,0.80
2022-09-04T11:14:50.436Z,0.60
2022-09-04T11:17:36.247Z,0.50
2022-09-04T11:20:21.747Z,0.40
2022-09-04T11:23:08.026Z,0.50
2022-09-04T11:26:02.928Z,0.63
2022-09-04T11:28:51.719Z,0.77
2022-09-04T11:31:28.334Z,0.60
2022-09-04T11:34:26.357Z,0.52
2022-09-04T11:37:11.856Z,0.60
2022-09-04T11:39:57.325Z,0.63
2022-09-04T11:42:41.356Z,0.70
2022-09-04T11:45:26.915Z,0.80
2022-09-04T11:48:09.352Z,0.60
2022-09-04T11:50:43.947Z,0.47
2022-09-04T11:53:22.614Z,0.50
2022-09-04T11:56:05.063Z,0.98
2022-09-04T11:58:42.420Z,0.80
2022-09-04T12:01:20.627Z,0.50
2022-09-04T12:04:00.230Z,0.60
2022-09-04T12:06:35.089Z,0.80
2022-09-04T12:09:16.059Z,0.60
2022-09-04T12:12:11.034Z,1.00
2022-09-04T12:14:53.112Z,0.50
2022-09-04T12:17:48.360Z,0.70
2022-09-04T12:20:33.594Z,0.68
2022-09-04T12:23:12.955Z,0.70
2022-09-04T12:26:00.459Z,0.50
2022-09-04T12:28:55.492Z,0.50
2022-09-04T12:31:46.752Z,3.28
2022-09-04T12:34:31.534Z,0.60
2022-09-04T12:37:19.897Z,0.60
2022-09-04T12:39:54.084Z,2.17
2022-09-04T12:42:25.500Z,0.73
2022-09-04T12:45:00.308Z,0.60
2022-09-04T12:47:34.561Z,1.10
2022-09-04T12:50:11.197Z,0.60
2022-09-04T12:52:45.387Z,0.85
2022-09-04T12:55:16.895Z,0.70
2022-09-04T12:57:48.626Z,0.60
2022-09-04T13:00:17.454Z,2.72
2022-09-04T13:02:49.491Z,0.65
2022-09-04T13:05:25.871Z,0.80
2022-09-04T13:07:56.326Z,0.95
2022-09-04T13:10:26.890Z,0.60
2022-09-04T13:12:59.569Z,1.08
2022-09-04T13:15:30.642Z,0.60
2022-09-04T13:18:08.579Z,0.55
2022-09-04T13:20:41.012Z,0.70
2022-09-04T13:23:26.068Z,0.50
2022-09-04T13:26:05.427Z,1.92
2022-09-04T13:28:38.316Z,0.75
2022-09-04T13:31:18.507Z,1.10
2022-09-04T13:33:51.254Z,0.75
2022-09-04T13:36:25.879Z,4.70
2022-09-04T13:39:17.171Z,0.50
2022-09-04T13:42:02.554Z,0.60
2022-09-04T13:44:38.344Z,0.60
2022-09-04T13:47:08.056Z,1.25
2022-09-04T13:49:41.218Z,0.85
2022-09-04T13:52:13.439Z,0.55
2022-09-04T13:54:44.002Z,0.50
2022-09-04T13:57:14.831Z,0.50
2022-09-04T13:59:43.528Z,0.60
2022-09-04T14:02:13.532Z,10.98
2022-09-04T14:04:43.922Z,0.90
2022-09-04T14:07:18.724Z,0.70
2022-09-04T14:09:48.799Z,0.70
2022-09-04T14:12:25.486Z,0.70
2022-09-04T14:15:07.575Z,0.80
2022-09-04T14:17:38.337Z,0.90
2022-09-04T14:20:11.471Z,0.80
2022-09-04T14:22:46.667Z,0.60
2022-09-04T14:25:17.308Z,0.90
2022-09-04T14:27:48.081Z,1.10
2022-09-04T14:30:16.916Z,0.70
2022-09-04T14:32:49.451Z,1.00
2022-09-04T14:35:22.887Z,0.60
2022-09-04T14:38:07.369Z,0.60
2022-09-04T14:40:38.107Z,1.02
2022-09-04T14:43:07.761Z,0.68
2022-09-04T14:45:52.050Z,0.60
2022-09-04T14:48:24.273Z,0.70
2022-09-04T14:50:54.337Z,0.90
2022-09-04T14:53:26.257Z,0.70
2022-09-04T14:56:17.717Z,0.60
2022-09-04T14:58:50.115Z,0.47
2022-09-04T15:01:19.982Z,0.50
2022-09-04T15:03:50.769Z,0.40
2022-09-04T15:06:24.800Z,0.52
2022-09-04T15:08:56.888Z,0.50
2022-09-04T15:11:31.577Z,0.60
2022-09-04T15:14:04.734Z,0.70
2022-09-04T15:16:44.210Z,0.63
2022-09-04T15:19:18.734Z,0.60
2022-09-04T15:21:51.523Z,0.55
2022-09-04T15:24:26.527Z,0.50
2022-09-04T15:26:57.146Z,0.60
2022-09-04T15:29:27.154Z,0.57
2022-09-04T15:32:00.456Z,0.63
2022-09-04T15:34:28.392Z,0.60
2022-09-04T15:37:08.957Z,0.47
2022-09-04T15:39:44.466Z,0.50
2022-09-04T15:42:13.155Z,0.50
2022-09-04T15:44:41.668Z,0.50
2022-09-04T15:47:16.937Z,0.40
2022-09-04T15:49:47.696Z,0.50
2022-09-04T15:52:24.999Z,0.50
2022-09-04T15:55:01.198Z,0.60
2022-09-04T15:57:34.161Z,0.50
2022-09-04T16:00:03.430Z,0.50
2022-09-04T16:02:36.244Z,0.50
2022-09-04T16:05:07.453Z,0.40
2022-09-04T16:07:40.294Z,0.47
2022-09-04T16:10:15.911Z,0.50
2022-09-04T16:12:50.617Z,0.70
2022-09-04T16:15:20.656Z,1.33
2022-09-04T16:17:50.495Z,0.50
2022-09-04T16:20:21.312Z,0.57
2022-09-04T16:22:50.275Z,5.13
2022-09-04T16:25:26.412Z,1.05
2022-09-04T16:27:56.965Z,0.60
2022-09-04T16:30:31.395Z,0.60
2022-09-04T16:32:59.181Z,0.50
2022-09-04T16:35:28.191Z,0.50
2022-09-04T16:37:59.482Z,1.10
2022-09-04T16:40:30.971Z,1.80
2022-09-04T16:43:02.749Z,4.72
2022-09-04T16:45:34.544Z,0.73
2022-09-04T16:48:34.129Z,1.27
2022-09-04T16:50:55.414Z,1.20
2022-09-04T16:53:32.760Z,1.00
2022-09-04T16:56:03.703Z,8.27
2022-09-04T16:58:46.145Z,3.60
2022-09-04T17:01:18.399Z,1.02
2022-09-04T17:04:13.937Z,0.70
2022-09-04T17:06:45.143Z,0.90
2022-09-04T17:09:21.453Z,0.90
2022-09-04T17:11:55.483Z,1.85
2022-09-04T17:14:26.317Z,1.33
2022-09-04T17:17:12.552Z,1.20
2022-09-04T17:20:01.531Z,1.20
2022-09-04T17:27:16.511Z,5.68
2022-09-04T17:29:10.275Z,13.38
2022-09-04T17:29:10.932Z,11.23
2022-09-04T17:31:19.559Z,16.88
2022-09-04T17:40:42.385Z,6.82
2022-09-04T17:40:44.397Z,6.13
2022-09-04T17:40:49.397Z,5.90
2022-09-04T17:42:24.324Z,19.23
2022-09-04T17:44:59.101Z,12.07
2022-09-04T17:47:31.658Z,7.22
2022-09-04T17:49:59.650Z,26.75
2022-09-04T17:52:28.296Z,7.75
2022-09-04T17:54:59.616Z,13.85
2022-09-04T17:57:32.277Z,6.50
2022-09-04T18:00:04.537Z,2.85
2022-09-04T18:02:35.758Z,1.83
2022-09-04T18:05:13.572Z,3.38
2022-09-04T18:08:09.463Z,9.23
2022-09-04T18:10:34.034Z,2.67
2022-09-04T18:13:08.861Z,11.18
2022-09-04T18:15:59.504Z,8.70
2022-09-04T18:18:30.398Z,6.75
2022-09-04T18:21:00.361Z,3.33
2022-09-04T18:23:51.336Z,3.80
2022-09-04T18:26:24.222Z,2.20
2022-09-04T18:28:57.350Z,2.00
2022-09-04T18:37:12.659Z,1.52
2022-09-04T18:37:21.953Z,10.00
2022-09-04T18:37:44.085Z,19.85
2022-09-04T18:40:12.627Z,8.75
2022-09-04T18:47:00.307Z,5.60
2022-09-04T18:50:30.121Z,4.03
2022-09-04T18:50:35.293Z,4.63
2022-09-04T18:51:21.956Z,3.45
2022-09-04T18:53:52.235Z,6.07
2022-09-04T18:56:22.285Z,2.75
2022-09-04T18:58:55.567Z,6.15
2022-09-04T19:01:27.361Z,6.97
2022-09-04T19:03:57.902Z,22.75
2022-09-04T19:06:32.861Z,4.70
2022-09-04T19:09:03.170Z,4.10
2022-09-04T19:11:32.624Z,5.72
2022-09-04T19:14:10.136Z,13.73
2022-09-04T19:16:40.810Z,7.25
2022-09-04T19:19:17.103Z,4.03
2022-09-04T19:21:58.174Z,2.17
2022-09-04T19:24:34.344Z,3.08
2022-09-04T19:27:26.548Z,7.50
2022-09-04T19:30:17.619Z,3.55
2022-09-04T19:33:08.568Z,2.47
2022-09-04T19:35:43.627Z,4.25
2022-09-04T19:45:22.075Z,11.68
2022-09-04T19:46:02.918Z,5.55
2022-09-04T19:46:09.467Z,4.18
2022-09-04T19:46:50.292Z,4.28
2022-09-04T19:50:48.808Z,3.38
2022-09-04T19:53:23.203Z,3.15
2022-09-04T19:55:24.545Z,3.10
2022-09-04T19:57:49.428Z,3.88
2022-09-04T20:00:42.834Z,3.90
2022-09-04T20:03:29.724Z,3.13
2022-09-04T20:06:20.767Z,2.70
2022-09-04T20:08:51.955Z,2.15
2022-09-04T20:11:34.756Z,2.03
2022-09-04T20:14:13.829Z,2.03
2022-09-04T20:16:48.538Z,2.90
2022-09-04T20:19:27.801Z,5.95
2022-09-04T20:21:57.768Z,2.47
2022-09-04T20:24:29.608Z,2.03
2022-09-04T20:27:00.300Z,2.17
2022-09-04T20:29:31.868Z,2.22
2022-09-04T20:32:04.204Z,2.25
2022-09-04T20:34:39.097Z,2.30
2022-09-04T20:37:23.581Z,1.80
2022-09-04T20:39:59.320Z,1.75
2022-09-04T20:42:29.916Z,2.17
2022-09-04T20:48:51.112Z,2.13
2022-09-04T20:52:48.891Z,2.28
2022-09-04T20:53:00.034Z,2.30
2022-09-04T20:53:40.872Z,2.00
2022-09-04T20:56:31.597Z,2.55
2022-09-04T21:03:13.650Z,1.88
2022-09-04T21:03:20.093Z,2.05
2022-09-04T21:04:54.363Z,2.20
2022-09-04T21:07:27.145Z,2.53
2022-09-04T21:10:10.407Z,2.47
2022-09-04T21:12:41.484Z,2.10
2022-09-04T21:15:12.311Z,1.95
2022-09-04T21:17:57.601Z,2.00
2022-09-04T21:20:36.361Z,1.90
2022-09-04T21:23:37.585Z,2.35
2022-09-04T21:26:13.003Z,2.22
2022-09-04T21:29:10.749Z,2.13
2022-09-04T21:31:46.974Z,2.17
2022-09-04T21:34:21.185Z,2.38
2022-09-04T21:36:50.763Z,2.22
2022-09-04T21:39:30.818Z,1.92
2022-09-04T21:42:17.605Z,2.08
2022-09-04T21:44:58.495Z,2.28
2022-09-04T21:47:45.474Z,1.98
2022-09-04T21:50:24.308Z,1.83
2022-09-04T21:53:16.916Z,1.98
2022-09-04T21:59:24.514Z,1.90
2022-09-04T22:02:35.825Z,1.83
2022-09-04T22:02:45.678Z,1.70
2022-09-04T22:04:31.449Z,2.15
2022-09-04T22:08:45.634Z,1.80
2022-09-04T22:13:31.540Z,1.92
2022-09-04T22:13:40.857Z,1.80
2022-09-04T22:15:49.507Z,1.67
2022-09-04T22:18:36.250Z,1.58
2022-09-04T22:21:11.771Z,1.80
2022-09-04T22:23:56.970Z,1.63
2022-09-04T22:26:38.497Z,1.77
2022-09-04T22:29:26.611Z,2.20
2022-09-04T22:32:19.979Z,2.13
2022-09-04T22:35:04.602Z,1.80
2022-09-04T22:37:46.628Z,2.00
2022-09-04T22:40:28.498Z,2.13
2022-09-04T22:43:05.498Z,2.30
2022-09-04T22:45:43.743Z,2.60
2022-09-04T22:48:20.254Z,2.25
2022-09-04T22:50:52.330Z,2.43
2022-09-04T22:53:27.776Z,2.40
2022-09-04T22:56:22.661Z,1.88
2022-09-04T22:59:23.869Z,2.60
2022-09-04T23:01:55.193Z,1.60
2022-09-04T23:04:38.085Z,2.03
2022-09-04T23:10:36.748Z,2.03
2022-09-04T23:13:47.121Z,2.22
2022-09-04T23:13:59.759Z,1.95
2022-09-04T23:16:22.748Z,2.10
2022-09-04T23:26:23.469Z,2.55
2022-09-04T23:26:44.645Z,2.03
2022-09-04T23:26:46.818Z,2.30
2022-09-04T23:28:02.636Z,2.50
2022-09-04T23:30:53.003Z,1.87
2022-09-04T23:33:31.029Z,1.67
2022-09-04T23:36:02.904Z,2.33
2022-09-04T23:38:49.720Z,2.10
2022-09-04T23:41:24.123Z,2.40
2022-09-04T23:44:06.490Z,2.57
2022-09-04T23:46:44.923Z,1.92
2022-09-04T23:49:33.567Z,2.38
2022-09-04T23:52:05.378Z,2.30
2022-09-04T23:55:03.605Z,2.30
2022-09-04T23:57:36.682Z,2.33
